createdAt,value
2018-08-23T00:01:29.475Z,4.70
2018-08-23T00:04:03.625Z,3.63
2018-08-23T00:06:32.735Z,3.73
2018-08-23T00:09:01.893Z,4.00
2018-08-23T00:11:32.955Z,3.23
2018-08-23T00:14:02.021Z,3.87
2018-08-23T00:16:36.712Z,3.80
2018-08-23T00:19:05.934Z,3.80
2018-08-23T00:21:40.474Z,4.20
2018-08-23T00:24:11.232Z,4.40
2018-08-23T00:26:49.368Z,3.63
2018-08-23T00:29:23.841Z,3.90
2018-08-23T00:31:55.115Z,4.10
2018-08-23T00:34:28.785Z,4.60
2018-08-23T00:36:58.297Z,4.67
2018-08-23T00:39:28.428Z,5.33
2018-08-23T00:42:02.906Z,6.37
2018-08-23T00:44:44.823Z,5.93
2018-08-23T00:47:14.014Z,5.13
2018-08-23T00:49:43.267Z,4.60
2018-08-23T00:52:12.523Z,5.07
2018-08-23T00:54:41.683Z,5.70
2018-08-23T00:57:10.917Z,5.70
2018-08-23T00:59:41.318Z,4.83
2018-08-23T01:02:11.953Z,4.67
2018-08-23T01:04:47.953Z,4.20
2018-08-23T01:07:24.851Z,4.87
2018-08-23T01:09:54.786Z,4.70
2018-08-23T01:12:24.920Z,4.13
2018-08-23T01:14:54.218Z,4.60
2018-08-23T01:17:23.834Z,4.67
2018-08-23T01:20:01.123Z,4.30
2018-08-23T01:22:31.024Z,4.40
2018-08-23T01:25:01.637Z,4.40
2018-08-23T01:27:36.467Z,6.47
2018-08-23T01:30:06.112Z,6.40
2018-08-23T01:32:35.422Z,4.70
2018-08-23T01:35:04.683Z,4.93
2018-08-23T01:37:37.585Z,4.60
2018-08-23T01:40:08.671Z,4.37
2018-08-23T01:42:39.749Z,5.07
2018-08-23T01:45:10.430Z,5.57
2018-08-23T01:47:45.443Z,4.87
2018-08-23T01:50:15.752Z,6.33
2018-08-23T01:52:48.960Z,6.77
2018-08-23T01:55:19.900Z,6.63
2018-08-23T01:57:50.115Z,6.33
2018-08-23T02:00:22.008Z,5.97
2018-08-23T02:02:51.558Z,7.23
2018-08-23T02:05:21.484Z,7.17
2018-08-23T02:07:51.095Z,6.77
2018-08-23T02:10:20.364Z,6.20
2018-08-23T02:12:52.957Z,6.17
2018-08-23T02:15:22.398Z,5.23
2018-08-23T02:17:57.878Z,5.30
2018-08-23T02:20:27.940Z,6.10
2018-08-23T02:22:57.417Z,7.10
2018-08-23T02:25:26.724Z,6.67
2018-08-23T02:28:00.558Z,7.47
2018-08-23T02:30:56.058Z,5.80
2018-08-23T02:33:26.094Z,6.07
2018-08-23T02:36:03.693Z,6.83
2018-08-23T02:38:33.446Z,7.03
2018-08-23T02:41:02.686Z,5.73
2018-08-23T02:43:32.122Z,6.00
2018-08-23T02:46:02.942Z,5.80
2018-08-23T02:48:31.949Z,6.00
2018-08-23T02:51:01.139Z,6.27
2018-08-23T02:53:34.535Z,5.63
2018-08-23T02:56:08.748Z,5.70
2018-08-23T02:58:50.748Z,6.97
2018-08-23T03:01:20.144Z,5.67
2018-08-23T03:04:02.021Z,6.87
2018-08-23T03:06:36.527Z,6.47
2018-08-23T03:09:07.189Z,6.03
2018-08-23T03:11:38.079Z,7.53
2018-08-23T03:14:07.396Z,6.00
2018-08-23T03:16:48.787Z,5.97
2018-08-23T03:19:18.050Z,5.90
2018-08-23T03:21:51.271Z,5.40
2018-08-23T03:24:20.808Z,5.83
2018-08-23T03:26:50.005Z,6.53
2018-08-23T03:29:19.211Z,9.33
2018-08-23T03:31:48.498Z,8.03
2018-08-23T03:34:17.666Z,8.80
2018-08-23T03:36:46.767Z,9.17
2018-08-23T03:39:15.854Z,7.10
2018-08-23T03:41:44.980Z,7.13
2018-08-23T03:44:24.768Z,8.70
2018-08-23T03:46:54.819Z,7.60
2018-08-23T03:49:32.680Z,8.07
2018-08-23T03:52:01.877Z,6.83
2018-08-23T03:54:31.362Z,6.20
2018-08-23T03:57:13.318Z,6.20
2018-08-23T03:59:44.267Z,6.87
2018-08-23T04:02:14.358Z,7.70
2018-08-23T04:04:44.854Z,7.20
2018-08-23T04:07:14.144Z,7.27
2018-08-23T04:09:43.931Z,8.07
2018-08-23T04:12:13.168Z,7.30
2018-08-23T04:14:42.210Z,6.77
2018-08-23T04:17:11.703Z,7.43
2018-08-23T04:19:49.669Z,7.97
2018-08-23T04:22:19.013Z,7.97
2018-08-23T04:24:54.499Z,7.57
2018-08-23T04:27:23.629Z,8.33
2018-08-23T04:29:52.803Z,9.30
2018-08-23T04:32:28.336Z,8.33
2018-08-23T04:34:59.566Z,8.30
2018-08-23T04:37:29.682Z,7.40
2018-08-23T04:40:05.109Z,7.33
2018-08-23T04:42:34.878Z,6.77
2018-08-23T04:45:33.166Z,6.87
2018-08-23T04:48:09.625Z,7.47
2018-08-23T04:50:39.889Z,6.30
2018-08-23T04:53:09.070Z,7.03
2018-08-23T04:55:38.269Z,8.53
2018-08-23T05:01:04.666Z,7.50
2018-08-23T05:03:34.303Z,8.73
2018-08-23T05:06:03.579Z,7.53
2018-08-23T05:08:32.868Z,8.37
2018-08-23T05:11:02.115Z,7.87
2018-08-23T05:13:31.485Z,7.20
2018-08-23T05:16:00.725Z,6.80
2018-08-23T05:18:30.037Z,6.40
2018-08-23T05:20:59.322Z,6.07
2018-08-23T05:23:28.610Z,6.20
2018-08-23T05:25:59.219Z,5.97
2018-08-23T05:28:28.407Z,4.93
2018-08-23T05:30:57.515Z,5.90
2018-08-23T05:33:26.888Z,6.17
2018-08-23T05:35:56.169Z,5.77
2018-08-23T05:38:26.104Z,6.40
2018-08-23T05:40:59.948Z,5.95
2018-08-23T05:43:29.094Z,6.20
2018-08-23T05:45:58.350Z,6.65
2018-08-23T05:48:30.709Z,6.10
2018-08-23T05:51:04.137Z,6.50
2018-08-23T05:53:33.702Z,7.50
2018-08-23T05:56:02.866Z,6.42
2018-08-23T05:58:33.124Z,5.78
2018-08-23T06:01:02.678Z,5.42
2018-08-23T06:03:31.874Z,6.58
2018-08-23T06:06:01.252Z,6.78
2018-08-23T06:08:31.466Z,6.25
2018-08-23T06:11:08.054Z,6.05
2018-08-23T06:13:37.219Z,6.55
2018-08-23T06:16:07.308Z,7.62
2018-08-23T06:18:36.467Z,7.50
2018-08-23T06:21:05.740Z,7.47
2018-08-23T06:23:57.016Z,6.28
2018-08-23T06:26:33.396Z,6.25
2018-08-23T06:29:02.743Z,6.30
2018-08-23T06:31:31.988Z,7.90
2018-08-23T06:34:01.181Z,7.10
2018-08-23T06:36:35.002Z,7.85
2018-08-23T06:39:05.200Z,6.60
2018-08-23T06:41:34.431Z,7.65
2018-08-23T06:44:03.507Z,7.47
2018-08-23T06:46:32.856Z,9.43
2018-08-23T06:49:02.104Z,8.80
2018-08-23T06:51:31.197Z,8.50
2018-08-23T06:54:01.145Z,7.92
2018-08-23T06:56:31.498Z,7.35
2018-08-23T06:59:01.031Z,7.10
2018-08-23T07:01:37.133Z,8.45
2018-08-23T07:04:09.293Z,8.70
2018-08-23T07:06:38.629Z,8.18
2018-08-23T07:09:11.010Z,8.43
2018-08-23T07:11:40.236Z,7.80
2018-08-23T07:14:12.096Z,7.62
2018-08-23T07:16:42.446Z,7.70
2018-08-23T07:19:24.223Z,8.28
2018-08-23T07:21:54.522Z,8.58
2018-08-23T07:24:37.573Z,7.83
2018-08-23T07:27:11.265Z,8.90
2018-08-23T07:29:40.490Z,9.15
2018-08-23T07:32:14.150Z,9.73
2018-08-23T07:34:57.639Z,8.65
2018-08-23T07:37:26.995Z,12.70
2018-08-23T07:40:01.554Z,8.43
2018-08-23T07:42:31.840Z,8.18
2018-08-23T07:45:01.383Z,7.62
2018-08-23T07:47:30.986Z,9.00
2018-08-23T07:50:01.411Z,7.65
2018-08-23T07:52:31.809Z,7.45
2018-08-23T07:55:03.517Z,7.62
2018-08-23T07:57:33.963Z,7.97
2018-08-23T08:00:13.063Z,8.13
2018-08-23T08:02:42.635Z,8.75
2018-08-23T08:05:11.816Z,7.95
2018-08-23T08:07:41.049Z,8.20
2018-08-23T08:10:14.622Z,7.80
2018-08-23T08:12:50.608Z,11.28
2018-08-23T08:15:19.968Z,7.67
2018-08-23T08:17:49.044Z,6.78
2018-08-23T08:20:18.197Z,7.30
2018-08-23T08:22:47.529Z,9.93
2018-08-23T08:25:19.046Z,7.42
2018-08-23T08:27:49.338Z,6.62
2018-08-23T08:30:24.317Z,9.03
2018-08-23T08:32:53.454Z,8.40
2018-08-23T08:35:22.664Z,7.60
2018-08-23T08:37:51.921Z,8.53
2018-08-23T08:40:24.445Z,12.78
2018-08-23T08:42:53.753Z,6.85
2018-08-23T08:45:26.235Z,7.78
2018-08-23T08:48:05.204Z,8.10
2018-08-23T08:50:38.998Z,9.23
2018-08-23T08:53:08.133Z,7.53
2018-08-23T08:58:33.970Z,8.15
2018-08-23T09:04:02.259Z,6.70
2018-08-23T09:10:54.659Z,7.67
2018-08-23T09:16:22.134Z,7.30
2018-08-23T09:19:00.560Z,7.50
2018-08-23T09:21:30.123Z,7.92
2018-08-23T09:26:56.856Z,7.60
2018-08-23T09:29:36.599Z,6.80
2018-08-23T09:32:11.628Z,8.40
2018-08-23T09:34:41.492Z,7.67
2018-08-23T09:37:11.061Z,8.10
2018-08-23T09:39:40.746Z,7.00
2018-08-23T09:47:00.857Z,10.28
2018-08-23T09:49:29.962Z,11.30
2018-08-23T09:51:59.319Z,7.95
2018-08-23T09:54:29.509Z,6.45
2018-08-23T09:56:58.766Z,8.20
2018-08-23T09:59:29.129Z,7.30
2018-08-23T10:02:03.859Z,7.53
2018-08-23T10:04:38.505Z,7.53
2018-08-23T10:07:13.158Z,8.45
2018-08-23T10:09:47.723Z,8.40
2018-08-23T10:12:22.320Z,8.30
2018-08-23T10:14:56.656Z,8.13
2018-08-23T10:17:31.163Z,8.85
2018-08-23T10:20:05.869Z,8.55
2018-08-23T10:22:40.277Z,7.95
2018-08-23T10:25:38.722Z,9.25
2018-08-23T10:28:10.761Z,7.15
2018-08-23T10:30:40.232Z,7.45
2018-08-23T10:33:09.541Z,10.45
2018-08-23T10:35:39.293Z,8.30
2018-08-23T10:38:08.599Z,7.55
2018-08-23T10:40:37.912Z,7.55
2018-08-23T10:43:07.148Z,8.30
2018-08-23T10:45:36.278Z,8.08
2018-08-23T10:48:11.309Z,7.78
2018-08-23T10:50:40.482Z,8.13
2018-08-23T10:53:09.878Z,7.55
2018-08-23T10:55:39.196Z,6.40
2018-08-23T10:58:08.377Z,7.15
2018-08-23T11:00:37.585Z,9.33
2018-08-23T11:03:06.917Z,6.75
2018-08-23T11:05:35.933Z,7.75
2018-08-23T11:08:10.555Z,7.10
2018-08-23T11:10:45.023Z,6.35
2018-08-23T11:13:19.524Z,5.65
2018-08-23T11:15:48.843Z,7.12
2018-08-23T11:18:23.114Z,5.65
2018-08-23T11:20:52.657Z,6.17
2018-08-23T11:23:25.472Z,5.87
2018-08-23T11:25:54.659Z,6.47
2018-08-23T11:28:24.992Z,5.80
2018-08-23T11:30:54.699Z,5.60
2018-08-23T11:33:23.931Z,5.05
2018-08-23T11:35:53.061Z,6.15
2018-08-23T11:38:22.245Z,7.65
2018-08-23T11:40:51.726Z,4.55
2018-08-23T11:43:20.977Z,6.08
2018-08-23T11:45:55.351Z,5.62
2018-08-23T11:48:24.691Z,5.80
2018-08-23T11:50:53.725Z,6.35
2018-08-23T11:53:23.252Z,9.63
2018-08-23T11:55:52.067Z,7.17
2018-08-23T11:58:21.166Z,4.85
2018-08-23T12:00:50.312Z,5.28
2018-08-23T12:03:19.521Z,4.87
2018-08-23T12:05:48.636Z,4.72
2018-08-23T12:08:17.804Z,4.87
2018-08-23T12:10:46.992Z,5.53
2018-08-23T12:13:16.068Z,5.35
2018-08-23T12:15:45.266Z,6.30
2018-08-23T12:18:14.523Z,5.58
2018-08-23T12:20:43.547Z,5.30
2018-08-23T12:23:12.577Z,6.15
2018-08-23T12:25:41.891Z,5.47
2018-08-23T12:28:16.425Z,5.22
2018-08-23T12:30:45.528Z,5.62
2018-08-23T12:33:14.779Z,5.17
2018-08-23T12:35:43.988Z,6.20
2018-08-23T12:38:20.592Z,6.37
2018-08-23T12:40:55.135Z,5.62
2018-08-23T12:43:29.819Z,6.40
2018-08-23T12:46:01.584Z,5.30
2018-08-23T12:48:30.762Z,6.62
2018-08-23T12:50:59.861Z,5.37
2018-08-23T12:53:30.209Z,5.35
2018-08-23T12:55:59.409Z,5.17
2018-08-23T12:58:28.548Z,5.42
2018-08-23T13:00:57.727Z,5.42
2018-08-23T13:03:27.139Z,5.03
2018-08-23T13:05:56.434Z,5.22
2018-08-23T13:08:25.832Z,4.67
2018-08-23T13:10:54.939Z,3.65
2018-08-23T13:13:24.197Z,3.98
2018-08-23T13:15:53.344Z,5.00
2018-08-23T13:18:22.544Z,5.35
2018-08-23T13:20:51.817Z,5.37
2018-08-23T13:23:21.171Z,6.00
2018-08-23T13:25:54.613Z,5.15
2018-08-23T13:28:24.260Z,4.28
2018-08-23T13:30:53.681Z,4.62
2018-08-23T13:33:23.540Z,4.58
2018-08-23T13:35:52.655Z,4.35
2018-08-23T13:38:21.728Z,3.52
2018-08-23T13:40:50.946Z,3.47
2018-08-23T13:43:20.001Z,3.42
2018-08-23T13:45:49.109Z,2.75
2018-08-23T13:48:18.459Z,2.65
2018-08-23T13:50:47.589Z,3.17
2018-08-23T13:53:16.748Z,2.85
2018-08-23T13:55:46.031Z,3.25
2018-08-23T13:58:15.357Z,3.45
2018-08-23T14:00:44.690Z,3.58
2018-08-23T14:03:13.886Z,3.60
2018-08-23T14:05:43.190Z,4.50
2018-08-23T14:08:12.302Z,4.20
2018-08-23T14:10:41.643Z,4.20
2018-08-23T14:13:11.147Z,4.05
2018-08-23T14:15:45.522Z,5.60
2018-08-23T14:18:14.758Z,5.12
2018-08-23T14:20:44.379Z,4.47
2018-08-23T14:23:13.520Z,4.50
2018-08-23T14:25:42.894Z,4.87
2018-08-23T14:28:12.738Z,4.10
2018-08-23T14:30:42.070Z,4.80
2018-08-23T14:33:11.304Z,4.60
2018-08-23T14:35:40.663Z,5.67
2018-08-23T14:38:10.001Z,4.45
2018-08-23T14:40:39.314Z,5.00
2018-08-23T14:43:08.700Z,4.60
2018-08-23T14:45:37.995Z,4.62
2018-08-23T14:48:12.410Z,4.83
2018-08-23T14:50:42.558Z,5.22
2018-08-23T14:53:11.818Z,5.10
2018-08-23T14:55:46.502Z,5.28
2018-08-23T14:58:15.828Z,4.75
2018-08-23T15:00:44.976Z,5.10
2018-08-23T15:03:14.158Z,5.00
2018-08-23T15:05:43.397Z,4.95
2018-08-23T15:08:12.551Z,5.03
2018-08-23T15:10:41.626Z,5.12
2018-08-23T15:13:10.642Z,7.08
2018-08-23T15:15:45.269Z,5.15
2018-08-23T15:18:14.322Z,4.80
2018-08-23T15:20:43.716Z,7.30
2018-08-23T15:23:12.838Z,6.42
2018-08-23T15:25:42.219Z,5.60
2018-08-23T15:28:11.561Z,5.35
2018-08-23T15:30:40.769Z,6.33
2018-08-23T15:33:10.205Z,7.37
2018-08-23T15:35:40.340Z,5.15
2018-08-23T15:38:09.494Z,6.55
2018-08-23T15:40:38.846Z,5.83
2018-08-23T15:43:08.022Z,5.45
2018-08-23T15:45:37.219Z,5.12
2018-08-23T15:48:06.399Z,5.40
2018-08-23T15:50:35.445Z,5.20
2018-08-23T15:53:04.803Z,5.00
2018-08-23T15:55:34.334Z,4.90
2018-08-23T15:58:03.193Z,5.15
2018-08-23T16:00:39.237Z,7.03
2018-08-23T16:03:08.725Z,4.67
2018-08-23T16:05:38.772Z,5.20
2018-08-23T16:08:07.967Z,5.85
2018-08-23T16:10:37.184Z,4.78
2018-08-23T16:13:06.535Z,4.72
2018-08-23T16:15:35.770Z,4.78
2018-08-23T16:18:10.235Z,4.05
2018-08-23T16:20:44.746Z,3.72
2018-08-23T16:23:15.078Z,3.10
2018-08-23T16:25:45.279Z,3.33
2018-08-23T16:28:14.485Z,3.22
2018-08-23T16:30:44.566Z,3.70
2018-08-23T16:33:13.930Z,4.75
2018-08-23T16:35:49.641Z,3.58
2018-08-23T16:38:19.092Z,4.10
2018-08-23T16:40:48.320Z,3.35
2018-08-23T16:43:17.758Z,3.08
2018-08-23T16:45:47.083Z,4.25
2018-08-23T16:48:16.295Z,3.80
2018-08-23T16:50:45.518Z,3.45
2018-08-23T16:53:15.387Z,3.52
2018-08-23T16:55:44.650Z,3.40
2018-08-23T16:58:14.727Z,3.02
2018-08-23T17:00:43.996Z,3.37
2018-08-23T17:03:13.289Z,2.67
2018-08-23T17:05:42.638Z,3.02
2018-08-23T17:08:12.433Z,2.77
2018-08-23T17:10:41.976Z,2.60
2018-08-23T17:13:16.560Z,3.85
2018-08-23T17:15:51.575Z,2.77
2018-08-23T17:18:21.187Z,2.70
2018-08-23T17:20:51.053Z,4.33
2018-08-23T17:23:20.605Z,3.45
2018-08-23T17:25:50.257Z,2.95
2018-08-23T17:28:20.028Z,2.85
2018-08-23T17:30:50.000Z,5.95
2018-08-23T17:33:19.845Z,3.05
2018-08-23T17:35:49.765Z,3.37
2018-08-23T17:38:19.139Z,2.70
2018-08-23T17:40:48.920Z,3.50
2018-08-23T17:43:18.352Z,2.55
2018-08-23T17:45:49.994Z,2.47
2018-08-23T17:48:20.409Z,2.60
2018-08-23T17:50:50.088Z,2.70
2018-08-23T17:53:19.600Z,2.70
2018-08-23T17:55:49.102Z,2.83
2018-08-23T17:58:19.029Z,3.02
2018-08-23T18:00:49.142Z,3.15
2018-08-23T18:03:19.604Z,2.30
2018-08-23T18:05:49.841Z,2.50
2018-08-23T18:08:20.103Z,2.20
2018-08-23T18:10:50.006Z,2.70
2018-08-23T18:13:20.047Z,2.20
2018-08-23T18:16:59.368Z,2.85
2018-08-23T18:19:29.883Z,2.27
2018-08-23T18:21:59.549Z,2.20
2018-08-23T18:24:29.621Z,2.65
2018-08-23T18:26:59.434Z,2.25
2018-08-23T18:29:29.237Z,2.15
2018-08-23T18:31:59.063Z,2.40
2018-08-23T18:34:28.744Z,2.58
2018-08-23T18:36:58.645Z,2.60
2018-08-23T18:39:29.230Z,2.55
2018-08-23T18:41:59.383Z,2.60
2018-08-23T18:44:28.956Z,2.72
2018-08-23T18:46:59.023Z,2.50
2018-08-23T18:49:28.721Z,3.20
2018-08-23T18:51:58.574Z,3.50
2018-08-23T18:54:28.239Z,4.45
2018-08-23T18:56:58.267Z,2.83
2018-08-23T18:59:28.616Z,2.92
2018-08-23T19:01:58.409Z,3.60
2018-08-23T19:04:28.793Z,2.92
2018-08-23T19:06:59.098Z,3.17
2018-08-23T19:09:29.619Z,3.12
2018-08-23T19:11:59.733Z,2.83
2018-08-23T19:14:29.913Z,2.92
2018-08-23T19:17:05.049Z,3.52
2018-08-23T19:19:36.023Z,2.70
2018-08-23T19:22:05.816Z,2.67
2018-08-23T19:24:35.469Z,2.67
2018-08-23T19:27:05.185Z,2.33
2018-08-23T19:29:34.860Z,2.10
2018-08-23T19:32:04.587Z,2.30
2018-08-23T19:34:34.580Z,2.67
2018-08-23T19:37:04.082Z,2.30
2018-08-23T19:39:33.960Z,2.75
2018-08-23T19:42:03.403Z,4.37
2018-08-23T19:44:32.676Z,2.95
2018-08-23T19:47:07.455Z,4.03
2018-08-23T19:49:42.507Z,3.55
2018-08-23T19:52:12.612Z,3.27
2018-08-23T19:54:42.494Z,3.15
2018-08-23T19:57:11.694Z,2.62
2018-08-23T19:59:41.335Z,3.27
2018-08-23T20:02:10.941Z,2.25
2018-08-23T20:04:41.115Z,3.05
2018-08-23T20:07:10.261Z,2.77
2018-08-23T20:09:39.779Z,4.45
2018-08-23T20:12:09.457Z,6.42
2018-08-23T20:14:38.988Z,3.58
2018-08-23T20:17:08.214Z,3.12
2018-08-23T20:19:37.363Z,3.85
2018-08-23T20:22:07.017Z,4.95
2018-08-23T20:24:36.434Z,3.52
2018-08-23T20:27:05.591Z,3.40
2018-08-23T20:29:35.014Z,4.70
2018-08-23T20:32:04.216Z,3.55
2018-08-23T20:34:33.518Z,3.45
2018-08-23T20:37:02.651Z,4.05
2018-08-23T20:39:31.774Z,3.58
2018-08-23T20:42:00.994Z,3.52
2018-08-23T20:44:30.068Z,4.62
2018-08-23T20:46:59.274Z,3.77
2018-08-23T20:49:28.496Z,3.33
2018-08-23T20:51:57.649Z,4.35
2018-08-23T20:54:26.949Z,3.60
2018-08-23T20:56:56.247Z,4.30
2018-08-23T20:59:25.315Z,4.60
2018-08-23T21:01:54.472Z,5.17
2018-08-23T21:04:23.776Z,4.10
2018-08-23T21:06:52.866Z,4.70
2018-08-23T21:09:22.091Z,4.85
2018-08-23T21:11:51.308Z,4.87
2018-08-23T21:14:20.489Z,4.57
2018-08-23T21:16:49.632Z,4.57
2018-08-23T21:19:18.802Z,4.10
2018-08-23T21:21:48.069Z,3.90
2018-08-23T21:24:17.484Z,4.07
2018-08-23T21:26:46.695Z,4.43
2018-08-23T21:29:15.939Z,4.50
2018-08-23T21:31:45.288Z,4.97
2018-08-23T21:34:14.449Z,5.87
2018-08-23T21:36:43.859Z,5.57
2018-08-23T21:39:12.943Z,5.30
2018-08-23T21:41:42.115Z,6.37
2018-08-23T21:44:11.404Z,6.17
2018-08-23T21:46:40.615Z,6.23
2018-08-23T21:49:09.812Z,5.70
2018-08-23T21:51:38.870Z,6.50
2018-08-23T21:54:08.011Z,6.77
2018-08-23T21:56:37.132Z,5.77
2018-08-23T21:59:06.345Z,4.63
2018-08-23T22:01:35.633Z,4.33
2018-08-23T22:04:04.908Z,4.93
2018-08-23T22:06:34.141Z,4.83
2018-08-23T22:09:03.525Z,5.37
2018-08-23T22:11:32.965Z,5.17
2018-08-23T22:14:02.287Z,5.67
2018-08-23T22:16:31.646Z,4.90
2018-08-23T22:19:00.791Z,4.27
2018-08-23T22:21:30.076Z,5.10
2018-08-23T22:23:59.463Z,4.80
2018-08-23T22:26:28.735Z,6.17
2018-08-23T22:28:58.030Z,5.70
2018-08-23T22:31:27.159Z,6.07
2018-08-23T22:33:56.373Z,5.97
2018-08-23T22:36:25.546Z,5.63
2018-08-23T22:38:54.744Z,5.20
2018-08-23T22:41:23.857Z,5.87
2018-08-23T22:43:52.998Z,6.60
2018-08-23T22:46:22.039Z,5.33
2018-08-23T22:48:51.080Z,5.73
2018-08-23T22:51:20.184Z,5.43
2018-08-23T22:53:49.372Z,5.60
2018-08-23T22:56:18.481Z,5.57
2018-08-23T22:58:47.625Z,6.27
2018-08-23T23:01:16.778Z,4.73
2018-08-23T23:03:51.124Z,4.90
2018-08-23T23:06:20.281Z,4.97
2018-08-23T23:08:49.526Z,4.30
2018-08-23T23:11:18.769Z,5.13
2018-08-23T23:13:47.863Z,5.00
2018-08-23T23:16:17.013Z,3.80
2018-08-23T23:18:46.130Z,3.90
2018-08-23T23:21:15.297Z,3.73
2018-08-23T23:23:44.491Z,4.10
2018-08-23T23:26:13.827Z,4.10
2018-08-23T23:28:43.031Z,6.00
2018-08-23T23:31:12.295Z,5.57
2018-08-23T23:33:41.391Z,5.40
2018-08-23T23:36:10.609Z,5.43
2018-08-23T23:38:39.952Z,6.50
2018-08-23T23:41:09.140Z,6.40
2018-08-23T23:43:38.429Z,6.93
2018-08-23T23:46:07.753Z,6.77
2018-08-23T23:48:36.936Z,7.27
2018-08-23T23:51:06.655Z,6.63
2018-08-23T23:53:35.923Z,7.03
2018-08-23T23:56:05.092Z,6.40
2018-08-23T23:58:34.299Z,8.57
